Time;durP1;ratioP1;P1;durP2;ratioP2;P2;SDS_P1;SDS_P2;PMS_P1;PMS_P2;Temp;Humidity;BMP_temperature;BMP_pressure;BME280_temperature;BME280_humidity;BME280_pressure;Samples;Min_cycle;Max_cycle;Signal;HPM_P1;HPM_P2
2022/09/04 00:02:17;;;;;;;12.82;9.73;;;;;;;;;;5017855;28;20029;-80
2022/09/04 00:05:02;;;;;;;9.55;8.32;;;;;;;;;;5017057;28;20084;-80
2022/09/04 00:07:30;;;;;;;10.88;9.65;;;;;;;;;;5018285;28;20014;-80
2022/09/04 00:09:56;;;;;;;12.88;9.45;;;;;;;;;;5018458;28;20029;-79
2022/09/04 00:12:25;;;;;;;15.18;9.43;;;;;;;;;;5018116;28;20307;-80
2022/09/04 00:14:55;;;;;;;12.80;9.05;;;;;;;;;;5018080;28;20026;-80
2022/09/04 00:17:33;;;;;;;11.75;9.00;;;;;;;;;;5016768;28;20034;-80
2022/09/04 00:20:05;;;;;;;10.82;8.75;;;;;;;;;;5017909;28;20054;-80
2022/09/04 00:22:35;;;;;;;9.18;7.90;;;;;;;;;;5018066;28;20352;-79
2022/09/04 00:25:01;;;;;;;9.30;8.02;;;;;;;;;;5018015;28;20037;-79
2022/09/04 00:27:29;;;;;;;11.43;8.65;;;;;;;;;;5017917;28;20314;-79
2022/09/04 00:30:04;;;;;;;8.45;7.57;;;;;;;;;;5018083;28;20033;-79
2022/09/04 00:32:33;;;;;;;10.57;7.65;;;;;;;;;;5018147;28;20049;-79
2022/09/04 00:35:02;;;;;;;10.05;7.30;;;;;;;;;;5017944;28;20061;-79
2022/09/04 00:37:32;;;;;;;10.60;7.95;;;;;;;;;;5017878;28;20108;-79
2022/09/04 00:40:02;;;;;;;8.50;6.80;;;;;;;;;;5016253;28;20424;-79
2022/09/04 00:42:37;;;;;;;9.15;7.18;;;;;;;;;;5017931;28;20029;-79
2022/09/04 00:45:12;;;;;;;7.85;7.05;;;;;;;;;;5017559;28;20026;-80
2022/09/04 00:47:57;;;;;;;8.05;7.25;;;;;;;;;;5017717;28;20033;-82
2022/09/04 00:50:42;;;;;;;7.43;6.72;;;;;;;;;;5016621;28;20340;-79
2022/09/04 00:53:26;;;;;;;7.13;6.20;;;;;;;;;;5017457;28;20392;-79
2022/09/04 00:55:55;;;;;;;8.95;7.25;;;;;;;;;;5017417;28;20393;-79
2022/09/04 00:58:40;;;;;;;7.82;6.45;;;;;;;;;;5017638;28;20053;-79
2022/09/04 01:01:06;;;;;;;7.57;6.30;;;;;;;;;;5017415;28;20391;-79
2022/09/04 01:03:51;;;;;;;11.85;7.60;;;;;;;;;;5016121;28;20036;-78
2022/09/04 01:06:42;;;;;;;10.10;7.28;;;;;;;;;;5016530;28;20344;-81
2022/09/04 01:09:17;;;;;;;7.55;6.82;;;;;;;;;;5017390;28;20033;-81
2022/09/04 01:11:50;;;;;;;8.75;7.13;;;;;;;;;;5017326;28;20030;-82
2022/09/04 01:14:16;;;;;;;8.00;7.20;;;;;;;;;;5017376;28;20076;-81
2022/09/04 01:17:02;;;;;;;9.70;7.60;;;;;;;;;;5017539;28;20037;-82
2022/09/04 01:19:40;;;;;;;7.75;7.05;;;;;;;;;;5017183;28;20084;-82
2022/09/04 01:22:13;;;;;;;8.40;7.40;;;;;;;;;;5017206;28;20420;-82
2022/09/04 01:24:42;;;;;;;8.77;7.88;;;;;;;;;;5017489;28;20025;-82
2022/09/04 01:27:14;;;;;;;10.07;7.28;;;;;;;;;;5017339;28;20026;-81
2022/09/04 01:29:48;;;;;;;9.90;7.35;;;;;;;;;;5017315;28;20096;-81
2022/09/04 01:32:14;;;;;;;8.93;8.02;;;;;;;;;;5017171;28;20033;-81
2022/09/04 01:34:45;;;;;;;9.82;7.78;;;;;;;;;;5017214;28;20026;-81
2022/09/04 01:37:29;;;;;;;11.07;8.70;;;;;;;;;;5015926;28;20034;-82
2022/09/04 01:40:12;;;;;;;8.90;8.00;;;;;;;;;;5016943;28;20359;-81
2022/09/04 01:42:53;;;;;;;13.68;9.40;;;;;;;;;;5016328;28;20101;-82
2022/09/04 01:45:24;;;;;;;11.57;9.73;;;;;;;;;;5016094;28;20022;-81
2022/09/04 01:47:51;;;;;;;11.13;9.32;;;;;;;;;;5016819;28;20042;-82
2022/09/04 01:50:22;;;;;;;11.68;10.02;;;;;;;;;;5017142;28;20443;-81
2022/09/04 01:52:53;;;;;;;16.45;11.43;;;;;;;;;;5016981;28;20036;-82
2022/09/04 01:55:31;;;;;;;16.15;12.65;;;;;;;;;;5017107;28;20380;-82
2022/09/04 01:58:16;;;;;;;16.52;13.43;;;;;;;;;;5017331;28;20030;-82
2022/09/04 02:01:00;;;;;;;15.88;13.45;;;;;;;;;;5016907;28;20048;-80
2022/09/04 02:03:32;;;;;;;17.13;13.32;;;;;;;;;;5015920;28;20022;-80
2022/09/04 02:06:13;;;;;;;17.27;13.35;;;;;;;;;;5015705;28;20455;-81
2022/09/04 02:08:40;;;;;;;17.42;13.77;;;;;;;;;;5017270;28;20034;-81
2022/09/04 02:11:20;;;;;;;16.77;12.40;;;;;;;;;;5017068;28;20021;-81
2022/09/04 02:13:46;;;;;;;14.98;11.82;;;;;;;;;;5015841;28;20042;-81
2022/09/04 02:16:32;;;;;;;14.27;12.43;;;;;;;;;;5016701;28;20412;-81
2022/09/04 02:19:11;;;;;;;13.55;11.18;;;;;;;;;;5016514;28;20428;-81
2022/09/04 02:22:00;;;;;;;13.25;11.43;;;;;;;;;;5016575;28;20037;-81
2022/09/04 02:24:35;;;;;;;12.30;10.50;;;;;;;;;;5013645;28;20049;-81
2022/09/04 02:27:04;;;;;;;14.43;10.15;;;;;;;;;;5019096;28;20049;-82
2022/09/04 02:29:34;;;;;;;10.75;9.65;;;;;;;;;;5020583;28;20084;-82
2022/09/04 02:32:09;;;;;;;10.45;9.45;;;;;;;;;;5020281;28;20041;-82
2022/09/04 02:34:45;;;;;;;10.95;9.95;;;;;;;;;;5019482;28;20030;-82
2022/09/04 02:37:40;;;;;;;11.40;10.02;;;;;;;;;;5020252;28;20029;-82
2022/09/04 02:40:09;;;;;;;10.52;9.02;;;;;;;;;;4998503;28;20039;-82
2022/09/04 02:42:43;;;;;;;10.15;8.43;;;;;;;;;;4998418;28;20298;-81
2022/09/04 02:45:18;;;;;;;10.20;9.02;;;;;;;;;;4998626;28;20130;-82
2022/09/04 02:47:48;;;;;;;12.15;9.98;;;;;;;;;;4998317;28;20030;-81
2022/09/04 02:50:20;;;;;;;11.13;8.82;;;;;;;;;;4998518;28;20145;-82
2022/09/04 02:52:49;;;;;;;10.48;9.35;;;;;;;;;;4998184;28;20073;-82
2022/09/04 02:55:43;;;;;;;12.73;9.48;;;;;;;;;;4998415;28;20038;-81
2022/09/04 02:58:19;;;;;;;13.52;9.48;;;;;;;;;;4998295;28;20054;-81
2022/09/04 03:00:54;;;;;;;11.32;9.90;;;;;;;;;;4998492;28;20034;-80
2022/09/04 03:03:37;;;;;;;9.98;8.98;;;;;;;;;;4998154;28;20446;-80
2022/09/04 03:06:03;;;;;;;9.93;8.65;;;;;;;;;;4998251;28;20121;-80
2022/09/04 03:08:32;;;;;;;10.88;8.70;;;;;;;;;;4998021;28;20101;-80
2022/09/04 03:11:02;;;;;;;10.40;9.18;;;;;;;;;;4997936;28;20034;-80
2022/09/04 03:13:28;;;;;;;10.35;8.82;;;;;;;;;;4997863;28;20019;-79
2022/09/04 03:16:09;;;;;;;10.25;9.20;;;;;;;;;;5003645;28;20026;-80
2022/09/04 03:18:58;;;;;;;10.00;8.80;;;;;;;;;;5019077;28;20058;-80
2022/09/04 03:21:29;;;;;;;10.27;9.27;;;;;;;;;;5017342;28;20084;-79
2022/09/04 03:23:58;;;;;;;9.98;8.80;;;;;;;;;;5017601;28;20037;-79
2022/09/04 03:26:28;;;;;;;11.82;8.57;;;;;;;;;;5042114;28;20029;-79
2022/09/04 03:29:00;;;;;;;9.82;8.82;;;;;;;;;;5057141;28;20040;-80
2022/09/04 03:31:29;;;;;;;9.75;8.75;;;;;;;;;;5043533;28;20108;-79
2022/09/04 03:34:07;;;;;;;11.27;8.98;;;;;;;;;;5035305;28;20051;-79
2022/09/04 03:36:52;;;;;;;9.68;8.68;;;;;;;;;;5047095;28;20040;-81
2022/09/04 03:39:32;;;;;;;10.98;9.10;;;;;;;;;;5022095;28;20137;-80
2022/09/04 03:42:10;;;;;;;9.90;8.90;;;;;;;;;;5020624;28;20021;-80
2022/09/04 03:44:39;;;;;;;9.60;8.63;;;;;;;;;;5036720;28;20044;-81
2022/09/04 03:47:05;;;;;;;10.00;8.93;;;;;;;;;;5023143;28;20041;-81
2022/09/04 03:49:47;;;;;;;10.52;9.18;;;;;;;;;;5017893;28;20060;-81
2022/09/04 03:52:24;;;;;;;9.95;8.95;;;;;;;;;;5017404;28;20038;-80
2022/09/04 03:54:50;;;;;;;9.45;8.35;;;;;;;;;;5017757;28;20034;-81
2022/09/04 03:57:25;;;;;;;10.68;8.82;;;;;;;;;;5023683;28;20036;-81
2022/09/04 03:59:59;;;;;;;9.68;8.57;;;;;;;;;;5038528;28;20034;-81
2022/09/04 04:02:44;;;;;;;10.20;8.77;;;;;;;;;;5027609;28;20109;-81
2022/09/04 04:05:29;;;;;;;12.05;8.38;;;;;;;;;;5038496;28;20021;-80
2022/09/04 04:08:07;;;;;;;11.23;8.75;;;;;;;;;;5026294;28;20293;-80
2022/09/04 04:10:34;;;;;;;10.80;9.10;;;;;;;;;;5018433;28;20092;-80
2022/09/04 04:13:11;;;;;;;10.65;9.55;;;;;;;;;;5024986;28;20033;-80
2022/09/04 04:15:55;;;;;;;10.07;8.98;;;;;;;;;;5024851;28;20029;-80
2022/09/04 04:18:54;;;;;;;10.63;9.38;;;;;;;;;;5017120;28;20132;-81
2022/09/04 04:21:22;;;;;;;12.20;9.25;;;;;;;;;;5016283;28;20030;-80
2022/09/04 04:23:59;;;;;;;14.70;10.48;;;;;;;;;;5017245;28;20400;-80
2022/09/04 04:26:37;;;;;;;13.02;10.18;;;;;;;;;;5019759;28;20036;-80
2022/09/04 04:29:18;;;;;;;10.68;9.48;;;;;;;;;;5016321;28;20068;-80
2022/09/04 04:32:09;;;;;;;11.13;10.03;;;;;;;;;;5016997;28;20033;-80
2022/09/04 04:34:48;;;;;;;12.50;9.48;;;;;;;;;;5017212;28;20272;-80
2022/09/04 04:37:25;;;;;;;13.95;9.93;;;;;;;;;;5027856;28;20034;-81
2022/09/04 04:40:09;;;;;;;10.85;9.10;;;;;;;;;;5018066;28;20038;-81
2022/09/04 04:42:43;;;;;;;10.23;9.23;;;;;;;;;;5001108;28;20065;-80
2022/09/04 04:45:49;;;;;;;9.35;8.43;;;;;;;;;;5030126;28;20037;-80
2022/09/04 04:48:27;;;;;;;9.52;8.52;;;;;;;;;;5030390;28;20030;-80
2022/09/04 04:51:06;;;;;;;11.23;9.60;;;;;;;;;;5023754;28;20048;-80
2022/09/04 04:53:41;;;;;;;11.48;9.52;;;;;;;;;;5029762;28;20026;-80
2022/09/04 04:56:25;;;;;;;12.57;8.68;;;;;;;;;;5015691;28;20038;-80
2022/09/04 04:58:54;;;;;;;10.90;9.80;;;;;;;;;;5019434;28;20470;-80
2022/09/04 05:01:33;;;;;;;10.77;9.27;;;;;;;;;;5018714;28;20025;-80
2022/09/04 05:04:01;;;;;;;14.65;9.77;;;;;;;;;;5034872;28;20442;-80
2022/09/04 05:06:35;;;;;;;10.27;9.32;;;;;;;;;;5028672;28;20036;-80
2022/09/04 05:09:12;;;;;;;11.75;9.55;;;;;;;;;;5019240;28;20033;-80
2022/09/04 05:11:43;;;;;;;11.30;10.07;;;;;;;;;;5018010;28;20029;-79
2022/09/04 05:14:12;;;;;;;12.75;9.68;;;;;;;;;;5037221;28;20033;-79
2022/09/04 05:16:57;;;;;;;11.65;9.90;;;;;;;;;;5035430;28;20376;-79
2022/09/04 05:19:26;;;;;;;12.80;10.48;;;;;;;;;;5035198;28;20320;-79
2022/09/04 05:21:52;;;;;;;13.88;10.60;;;;;;;;;;5035409;28;20045;-80
2022/09/04 05:24:31;;;;;;;11.82;10.18;;;;;;;;;;5035598;28;20105;-80
2022/09/04 05:27:06;;;;;;;11.32;10.15;;;;;;;;;;5034472;28;20381;-80
2022/09/04 05:29:38;;;;;;;13.07;10.60;;;;;;;;;;5017435;28;20483;-80
2022/09/04 05:32:07;;;;;;;12.82;10.77;;;;;;;;;;5019092;28;20114;-81
2022/09/04 05:34:33;;;;;;;15.35;11.38;;;;;;;;;;5043853;28;20065;-80
2022/09/04 05:37:02;;;;;;;15.45;11.40;;;;;;;;;;5049450;28;20034;-81
2022/09/04 05:39:30;;;;;;;14.35;11.35;;;;;;;;;;5017976;28;20030;-80
2022/09/04 05:42:11;;;;;;;14.38;11.27;;;;;;;;;;5035846;28;20320;-80
2022/09/04 05:44:42;;;;;;;15.23;11.68;;;;;;;;;;5033113;28;20030;-81
2022/09/04 05:47:08;;;;;;;17.02;11.80;;;;;;;;;;5026073;28;20297;-81
2022/09/04 05:49:41;;;;;;;14.65;13.15;;;;;;;;;;5032415;28;20128;-81
2022/09/04 05:52:07;;;;;;;16.70;13.40;;;;;;;;;;5018062;28;20034;-81
2022/09/04 05:54:45;;;;;;;15.35;13.77;;;;;;;;;;5032497;28;20029;-80
2022/09/04 05:57:13;;;;;;;18.52;14.32;;;;;;;;;;5034477;28;20104;-80
2022/09/04 05:59:39;;;;;;;15.98;12.95;;;;;;;;;;5029333;28;20426;-80
2022/09/04 06:02:23;;;;;;;17.30;13.80;;;;;;;;;;5024915;28;20345;-80
2022/09/04 06:05:08;;;;;;;21.02;14.95;;;;;;;;;;5036275;28;20043;-81
2022/09/04 06:07:34;;;;;;;23.65;14.65;;;;;;;;;;5036930;28;20049;-81
2022/09/04 06:10:06;;;;;;;25.90;15.23;;;;;;;;;;5020614;28;20073;-81
2022/09/04 06:12:32;;;;;;;18.17;14.40;;;;;;;;;;5021663;28;20111;-80
2022/09/04 06:15:06;;;;;;;17.08;14.32;;;;;;;;;;5027927;28;20121;-80
2022/09/04 06:17:39;;;;;;;19.38;14.40;;;;;;;;;;5031608;28;20030;-80
2022/09/04 06:20:24;;;;;;;22.25;15.82;;;;;;;;;;5030697;28;20124;-80
2022/09/04 06:22:50;;;;;;;15.75;14.05;;;;;;;;;;5035116;28;20396;-80
2022/09/04 06:25:25;;;;;;;19.27;15.18;;;;;;;;;;5021273;28;20064;-80
2022/09/04 06:28:00;;;;;;;19.30;14.48;;;;;;;;;;5021328;28;20025;-80
2022/09/04 06:30:33;;;;;;;20.52;15.07;;;;;;;;;;5038957;28;20021;-79
2022/09/04 06:33:02;;;;;;;20.25;15.98;;;;;;;;;;5035234;28;20057;-83
2022/09/04 06:35:46;;;;;;;20.10;15.88;;;;;;;;;;5023593;28;20029;-82
2022/09/04 06:38:13;;;;;;;17.08;15.05;;;;;;;;;;5037179;28;20136;-81
2022/09/04 06:40:42;;;;;;;19.35;16.50;;;;;;;;;;5033865;28;20056;-81
2022/09/04 06:43:08;;;;;;;18.65;16.08;;;;;;;;;;5031714;28;20037;-80
2022/09/04 06:45:53;;;;;;;20.67;16.00;;;;;;;;;;5028090;28;20030;-81
2022/09/04 06:48:28;;;;;;;19.00;16.02;;;;;;;;;;5035778;28;20323;-81
2022/09/04 06:51:14;;;;;;;18.77;16.70;;;;;;;;;;5019934;28;20026;-81
2022/09/04 06:54:05;;;;;;;17.35;15.55;;;;;;;;;;5023487;28;20022;-81
2022/09/04 06:56:40;;;;;;;19.87;15.60;;;;;;;;;;5020115;28;20049;-80
2022/09/04 06:59:09;;;;;;;19.65;16.45;;;;;;;;;;5027231;28;20064;-80
2022/09/04 07:01:45;;;;;;;20.73;16.75;;;;;;;;;;5023825;28;20026;-80
2022/09/04 07:04:27;;;;;;;19.83;17.08;;;;;;;;;;5034447;28;20018;-81
2022/09/04 07:07:12;;;;;;;25.88;17.60;;;;;;;;;;5019828;28;20068;-80
2022/09/04 07:09:51;;;;;;;23.98;17.88;;;;;;;;;;5049375;28;20145;-81
2022/09/04 07:12:53;;;;;;;21.45;17.63;;;;;;;;;;5018244;28;20026;-81
2022/09/04 07:15:27;;;;;;;25.38;18.60;;;;;;;;;;5017972;28;20026;-80
2022/09/04 07:17:53;;;;;;;21.33;16.80;;;;;;;;;;5036292;28;20044;-81
2022/09/04 07:20:24;;;;;;;27.63;18.48;;;;;;;;;;5036821;28;20087;-81
2022/09/04 07:23:02;;;;;;;19.63;16.77;;;;;;;;;;5040070;28;20100;-81
2022/09/04 07:25:36;;;;;;;20.45;17.98;;;;;;;;;;5018431;28;20049;-81
2022/09/04 07:28:21;;;;;;;20.58;16.73;;;;;;;;;;5027677;28;20061;-80
2022/09/04 07:30:53;;;;;;;21.92;16.83;;;;;;;;;;5018382;28;20418;-81
2022/09/04 07:33:31;;;;;;;79.05;56.90;;;;;;;;;;5022427;28;20040;-82
2022/09/04 07:36:15;;;;;;;38.70;26.98;;;;;;;;;;5036528;28;20048;-81
2022/09/04 07:38:54;;;;;;;53.65;40.70;;;;;;;;;;5027253;28;20030;-81
2022/09/04 07:41:38;;;;;;;96.68;68.82;;;;;;;;;;5050513;28;20379;-83
2022/09/04 07:44:09;;;;;;;73.00;52.90;;;;;;;;;;5036736;28;20094;-82
2022/09/04 07:46:47;;;;;;;87.60;62.67;;;;;;;;;;5053270;28;20026;-81
2022/09/04 07:49:26;;;;;;;19.10;14.85;;;;;;;;;;5017248;28;20049;-80
2022/09/04 07:51:58;;;;;;;29.65;23.02;;;;;;;;;;5018806;28;20026;-81
2022/09/04 07:54:33;;;;;;;24.13;17.63;;;;;;;;;;5018672;28;20025;-82
2022/09/04 07:57:14;;;;;;;37.38;28.45;;;;;;;;;;5018821;28;20037;-82
2022/09/04 07:59:58;;;;;;;31.63;22.20;;;;;;;;;;5050739;28;20071;-82
2022/09/04 08:02:39;;;;;;;17.90;15.80;;;;;;;;;;5038473;28;20100;-81
2022/09/04 08:05:18;;;;;;;48.60;36.35;;;;;;;;;;5038046;28;20347;-80
2022/09/04 08:08:15;;;;;;;45.50;34.70;;;;;;;;;;5038257;28;20025;-80
2022/09/04 08:11:04;;;;;;;29.95;24.75;;;;;;;;;;5038356;28;20030;-81
2022/09/04 08:13:54;;;;;;;29.30;22.25;;;;;;;;;;5037293;28;20072;-80
2022/09/04 08:16:38;;;;;;;21.60;15.40;;;;;;;;;;4989095;28;20049;-80
2022/09/04 08:19:07;;;;;;;28.08;21.27;;;;;;;;;;4996096;28;20070;-81
2022/09/04 08:21:35;;;;;;;27.27;19.73;;;;;;;;;;4996906;28;20121;-83
2022/09/04 08:27:23;;;;;;;31.45;24.30;;;;;;;;;;4996363;28;20229;-85
2022/09/04 08:30:04;;;;;;;26.65;21.55;;;;;;;;;;4980678;28;20073;-84
2022/09/04 08:32:30;;;;;;;19.17;15.63;;;;;;;;;;4990759;28;20130;-83
2022/09/04 08:34:56;;;;;;;25.45;20.70;;;;;;;;;;5015760;28;20034;-83
2022/09/04 08:37:27;;;;;;;44.13;34.20;;;;;;;;;;5012573;28;20037;-82
2022/09/04 08:40:12;;;;;;;35.70;25.75;;;;;;;;;;5015965;28;20046;-83
2022/09/04 08:42:53;;;;;;;15.05;13.43;;;;;;;;;;5016129;28;20069;-82
2022/09/04 08:45:37;;;;;;;38.55;29.80;;;;;;;;;;5016318;28;20034;-84
2022/09/04 08:48:03;;;;;;;30.40;24.90;;;;;;;;;;4999595;28;20045;-84
2022/09/04 08:50:43;;;;;;;18.27;14.20;;;;;;;;;;4989258;28;20026;-83
